Centre Hospitalier Sainte Catherine Heliport

FR-0005 · Département du Bas-Rhin, Alsace-Champagne-Ardenne-Lorraine, France

METAR anciennes FR-0005 · Centre Hospitalier Sainte Catherine Heliport

Tu vois ci-dessous les METAR des derniers jours. Sélectionne une année pour parcourir les METAR plus anciens, à partir de l'année 2007.

23 juin 2024

Temps Code Temps Temp. Vue Base cloud Vent METAR/SPECI
03:00
V
15 °C 10 km+ 5.200 ft 230° 230° 2 kt METAR LFST 230100Z AUTO 23002KT 9999 SCT045 BKN052 OVC066 15/15 Q1018 TEMPO 4000 -SHRA FEW025TCU
02:30
V
15 °C 10 km+ 4.800 ft 360° 360° 0 kt METAR LFST 230030Z AUTO 00000KT 9999 FEW034 BKN048 OVC054 15/15 Q1018 TEMPO 4000 -SHRA FEW025TCU
02:00
V
15 °C 10 km+ 5.600 ft 110° 110° 2 kt METAR LFST 230000Z AUTO 11002KT 9999 FEW035 BKN056 OVC072 15/14 Q1018 TEMPO 4000 -SHRA FEW025TCU
01:30
V
15 °C 10 km+ 5.400 ft Var Var 1 kt METAR LFST 222330Z AUTO VRB01KT 9999 BKN054 OVC066 15/14 Q1017 TEMPO 4000 -SHRA FEW025TCU
01:00
V
15 °C 10 km+ 6.800 ft 270° 270° 2 kt METAR LFST 222300Z AUTO 27002KT 9999 FEW035 BKN068 15/14 Q1018 TEMPO 2000 BR FEW025TCU BKN030
00:30
V
15 °C 10 km+ - 270° 270° 1 kt METAR LFST 222230Z AUTO 27001KT CAVOK 15/14 Q1018 TEMPO 2000 BR FEW025TCU BKN030
00:00
V
15 °C 10 km+ - Var Var 2 kt METAR LFST 222200Z AUTO VRB02KT CAVOK 15/14 Q1018 TEMPO FEW025TCU BKN030

22 juin 2024

Temps Code Temps Temp. Vue Base cloud Vent METAR/SPECI
23:30
V
16 °C 10 km+ - Var Var 1 kt METAR LFST 222130Z AUTO VRB01KT CAVOK 16/14 Q1017 TEMPO FEW025TCU BKN030
23:00
V
16 °C 10 km+ - Var Var 3 kt METAR LFST 222100Z AUTO VRB03KT CAVOK 16/15 Q1017 TEMPO SHRA FEW025TCU BKN030
22:30
V
16 °C 10 km+ 6.400 ft 140° 140° 3 kt METAR LFST 222030Z AUTO 14003KT 100V170 9999 FEW010 OVC064 16/14 Q1017 TEMPO SHRA FEW025TCU BKN030
22:00
V
16 °C 10 km+ - Var Var 2 kt METAR LFST 222000Z AUTO VRB02KT CAVOK 16/15 Q1017 TEMPO SHRA FEW015CB
21:30
V
16 °C 10 km+ - Var Var 2 kt METAR LFST 221930Z AUTO VRB02KT CAVOK 16/14 Q1016 TEMPO SHRA FEW015CB
21:00
V
17 °C 10 km+ - 170° 170° 3 kt METAR LFST 221900Z AUTO 17003KT 130V210 CAVOK 17/14 Q1016 TEMPO SHRA FEW015CB
20:30
V
17 °C 10 km+ 6.000 ft Var Var 2 kt METAR LFST 221830Z AUTO VRB02KT 9999 FEW011 OVC060 17/14 Q1016 TEMPO SHRA FEW015CB
20:00
V
17 °C 10 km+ 6.000 ft 180° 180° 4 kt METAR LFST 221800Z AUTO 18004KT 150V210 9999 FEW011 OVC060 17/15 Q1016 TEMPO SHRA FEW015CB
19:30
V
17 °C 10 km+ 5.400 ft 180° 180° 5 kt METAR LFST 221730Z AUTO 18005KT 9999 FEW011 OVC054 17/14 Q1016 TEMPO SHRA FEW015CB
19:00
V
17 °C 10 km+ 5.800 ft 190° 190° 5 kt METAR LFST 221700Z AUTO 19005KT 160V220 9999 FEW011 OVC058 17/14 Q1016 TEMPO 4000 SHRA FEW015CB
18:30
V
17 °C 10 km+ 5.200 ft 170° 170° 6 kt METAR LFST 221630Z AUTO 17006KT 140V200 9999 FEW025 SCT033 OVC052 17/15 Q1016 TEMPO 4000 SHRA FEW015CB
18:00
M
17 °C 10 km+ 2.000 ft 170° 170° 8 kt METAR LFST 221600Z AUTO 17008KT 120V200 9999 FEW012 BKN020 BKN027 17/14 Q1016 TEMPO 4000 SHRA FEW015CB
17:30
M
17 °C 10 km+ 2.200 ft 180° 180° 3 kt METAR LFST 221530Z AUTO 18003KT 100V250 9999 BKN022 BKN032 BKN054 17/14 Q1016 TEMPO 4000 SHRA FEW015CB
17:00
V
17 °C 10 km+ 3.500 ft 190° 190° 5 kt METAR LFST 221500Z AUTO 19005KT 9999 FEW018 SCT029 BKN035 17/14 Q1016 TEMPO 4000 SHRA FEW015CB
16:30
M
18 °C 10 km+ 1.700 ft 210° 210° 5 kt METAR LFST 221430Z AUTO 21005KT 150V250 9999 BKN017 BKN024 OVC052 18/14 Q1016 TEMPO 4000 SHRA FEW015CB
16:00
M
18 °C 10 km+ 1.700 ft 210° 210° 3 kt METAR LFST 221400Z AUTO 21003KT 160V290 9999 BKN017 BKN043 OVC052 18/14 Q1016 TEMPO 4000 SHRA FEW015CB
15:30
V
17 °C 10 km+ 6.000 ft 160° 160° 4 kt METAR LFST 221330Z AUTO 16004KT 070V230 9999 FEW015 BKN060 BKN082 17/14 Q1016 TEMPO 4000 SHRA FEW015CB
15:00
V
17 °C 10 km+ 9.400 ft Var Var 3 kt METAR LFST 221300Z AUTO VRB03KT 9999 FEW013 SCT033 BKN094 17/14 Q1016 TEMPO 4000 SHRA FEW015CB
14:30
V
16 °C 10 km+ 3.100 ft Var Var 3 kt METAR LFST 221230Z AUTO VRB03KT 9999 -RA OVC031 16/13 Q1017 TEMPO 4000 SHRA FEW015CB
14:00
V
16 °C 10 km+ 4.100 ft Var Var 2 kt METAR LFST 221200Z AUTO VRB02KT 9999 -RA SCT034/// BKN041/// BKN047/// ///TCU 16/13 Q1017 TEMPO 4000 RA FEW015CB BKN025
13:30
V
16 °C 9 km 4.900 ft 220° 220° 3 kt METAR LFST 221130Z AUTO 22003KT 9000 -RA FEW041/// BKN049/// OVC064/// ///TCU 16/13 Q1017 TEMPO 4000 RA FEW015CB BKN025
13:00
V
16 °C 10 km+ 5.400 ft Var Var 2 kt METAR LFST 221100Z AUTO VRB02KT 9999 -RA FEW033/// SCT046/// BKN054/// ///CB 16/13 Q1017 TEMPO 28015G25KT 3000 RA BKN009
12:30
V
16 °C 10 km+ 5.400 ft 260° 260° 6 kt METAR LFST 221030Z AUTO 26006KT 9999 -RA FEW038/// BKN054/// OVC064/// ///CB 16/14 Q1016 TEMPO 28015G25KT 3000 RA BKN009
12:00
V
16 °C 10 km+ 4.900 ft 280° 280° 7 kt METAR LFST 221000Z AUTO 28007KT 240V320 9999 -RA FEW009/// SCT040/// BKN049/// ///CB 16/14 Q1016 TEMPO 28015G25KT 3000 RA BKN009
11:30
M
15 °C 5 km 2.800 ft 290° 290° 10 kt METAR LFST 220930Z AUTO 29010KT 5000 RA BR FEW011/// SCT021/// BKN028/// ///CB 15/14 Q1016 TEMPO 28015G25KT TSRA BKN009
11:00
I
16 °C 3,6 km 2.400 ft 260° 260° 9 kt METAR LFST 220900Z AUTO 26009KT 220V280 3600 RA BR FEW009/// SCT017/// BKN024/// ///CB 16/15 Q1016 TEMPO 28015G25KT TSRA BKN009
10:30
L
17 °C 900 m 1.400 ft 270° 270° 6 kt METAR LFST 220830Z AUTO 27006KT 1600 0900 R23/1500U R05/1400D RA BCFG FEW005/// BKN014/// BKN032/// ///CB 17/16 Q1015 TEMPO 28015G25KT 3000 RA BKN009
10:00
L
18 °C 800 m 3.200 ft 200° 200° 4 kt METAR LFST 220800Z AUTO 20004KT 170V240 9999 0800 R23/P2000 R05/1200D // SCT012/// BKN032/// OVC042/// ///CB 18/16 Q1015
09:30
V
18 °C 10 km+ 3.700 ft 200° 200° 6 kt METAR LFST 220730Z AUTO 20006KT 170V240 9999 SCT011/// BKN037/// BKN046/// //////CB 18/16 Q1015 TEMPO 28015G25KT 3000 RA
09:00
V
17 °C 10 km+ 3.600 ft 210° 210° 4 kt METAR LFST 220700Z AUTO 21004KT 9999 FEW010/// BKN036/// BKN050/// ///TCU 17/16 Q1016 TEMPO 3000 RA SCT020CB
08:30
V
17 °C 9 km 6.000 ft 190° 190° 4 kt METAR LFST 220630Z AUTO 19004KT 140V230 9000 -RA FEW009/// BKN060/// BKN070/// ///CB 17/15 Q1015 BECMG BKN035
08:00
V
18 °C 10 km+ 9.400 ft 180° 180° 7 kt METAR LFST 220600Z AUTO 18007KT 130V210 9999 SCT007/// SCT062/// BKN094/// ///CB 18/16 Q1016 BECMG BKN035
07:30
V
16 °C 10 km+ 10.000 ft 170° 170° 5 kt METAR LFST 220530Z AUTO 17005KT 110V210 9999 FEW005/// SCT052/// BKN100/// ///TCU 16/15 Q1015 BECMG BKN035
07:00
M
16 °C 7 km 3.700 ft 180° 180° 5 kt METAR LFST 220500Z AUTO 18005KT 130V220 7000 SCT005 BKN037 BKN058 16/15 Q1015 TEMPO 3000 BR
06:30
V
16 °C 8 km 3.400 ft 200° 200° 3 kt METAR LFST 220430Z AUTO 20003KT 8000 BKN034 BKN045 OVC064 16/15 Q1016 TEMPO 3000 BR
06:00
M
16 °C 7 km 4.400 ft 190° 190° 7 kt METAR LFST 220400Z AUTO 19007KT 160V220 7000 SCT036/// BKN044/// BKN056/// //////TCU 16/15 Q1016 TEMPO 3000 BR BECMG NSC
05:30
M
15 °C 5 km 6.800 ft 170° 170° 3 kt METAR LFST 220330Z AUTO 17003KT 130V200 5000 -RA BR FEW050/// BKN068/// OVC086/// ///TCU 15/14 Q1016 TEMPO 0800 FG BECMG NSC
05:00
V
14 °C 10 km+ 7.000 ft Var Var 2 kt METAR LFST 220300Z AUTO VRB02KT 9999 FEW056 BKN070 OVC092 14/14 Q1016 TEMPO 0800 FG
04:30
M
14 °C 7 km - 210° 210° 4 kt METAR LFST 220230Z AUTO 21004KT 180V250 7000 NSC 14/13 Q1016 TEMPO 0800 FG
04:00
M
14 °C 7 km - Var Var 1 kt METAR LFST 220200Z AUTO VRB01KT 7000 NSC 14/13 Q1016 TEMPO 0800 FG
03:30
V
15 °C 10 km+ - Var Var 2 kt METAR LFST 220130Z AUTO VRB02KT CAVOK 15/13 Q1016 TEMPO 0800 FG
03:00
V
15 °C 10 km+ - Var Var 3 kt METAR LFST 220100Z AUTO VRB03KT CAVOK 15/13 Q1017 TEMPO 0800 FG
02:30
V
15 °C 10 km+ - 200° 200° 3 kt METAR LFST 220030Z AUTO 20003KT CAVOK 15/13 Q1017 TEMPO 0800 FG
02:00
V
16 °C 10 km+ - 240° 240° 3 kt METAR LFST 220000Z AUTO 24003KT CAVOK 16/13 Q1017 NOSIG
01:30
V
16 °C 10 km+ - 250° 250° 4 kt METAR LFST 212330Z AUTO 25004KT CAVOK 16/14 Q1017 NOSIG
01:00
V
16 °C 10 km+ - 240° 240° 5 kt METAR LFST 212300Z AUTO 24005KT CAVOK 16/14 Q1017 NOSIG
00:30
V
17 °C 10 km+ - 250° 250° 4 kt METAR LFST 212230Z AUTO 25004KT CAVOK 17/15 Q1016 NOSIG
00:00
V
17 °C 10 km+ - 240° 240° 4 kt METAR LFST 212200Z AUTO 24004KT CAVOK 17/15 Q1016 NOSIG

21 juin 2024

Temps Code Temps Temp. Vue Base cloud Vent METAR/SPECI
23:30
V
17 °C 10 km+ 12.000 ft Var Var 2 kt METAR LFST 212130Z AUTO VRB02KT 9999 FEW029 BKN120 17/16 Q1016 NOSIG
23:00
V
17 °C 10 km+ 3.500 ft 360° 360° 0 kt METAR LFST 212100Z AUTO 00000KT 9999 FEW008 SCT027 BKN035 17/16 Q1015 TEMPO 4000 SHRA SCT040CB
22:30
V
17 °C 10 km+ 5.600 ft Var Var 2 kt METAR LFST 212030Z AUTO VRB02KT 9999 SCT035/// BKN056/// BKN100/// ///TCU 17/16 Q1015 TEMPO 4000 SHRA SCT040CB
22:00
M
17 °C 7 km 10.000 ft 200° 200° 4 kt METAR LFST 212000Z AUTO 20004KT 7000 -RA FEW033/// BKN100/// BKN150/// ///CB 17/16 Q1015 TEMPO 4000 SHRA
21:30
V
18 °C 10 km+ 4.500 ft 260° 260° 6 kt METAR LFST 211930Z AUTO 26006KT 9999 -RA FEW012/// BKN045/// BKN060/// ///CB 18/16 Q1015 TEMPO 4000 SHRA
21:00
V
20 °C 10 km+ 4.000 ft 200° 200° 4 kt METAR LFST 211900Z AUTO 20004KT 170V240 9999 -RA FEW021/// BKN040/// BKN052/// ///CB 20/15 Q1014 TEMPO 4000 SHRA
20:30
V
21 °C 10 km+ 10.000 ft 210° 210° 4 kt METAR LFST 211830Z AUTO 21004KT 9999 SCT038/// SCT052/// BKN100/// ///CB 21/15 Q1014 TEMPO 4000 SHRA
20:00
V
21 °C 10 km+ 23.000 ft 210° 210° 6 kt METAR LFST 211800Z AUTO 21006KT 9999 FEW037 SCT100 BKN230 21/15 Q1014 TEMPO 2000 TSRA BKN040CB
19:30
V
21 °C 10 km+ - 210° 210° 5 kt METAR LFST 211730Z AUTO 21005KT 180V250 CAVOK 21/15 Q1014 TEMPO 2000 TSRA BKN040CB
19:00
V
22 °C 10 km+ 19.000 ft 270° 270° 9 kt METAR LFST 211700Z AUTO 27009KT 230V300 9999 FEW049 BKN190 BKN230 22/14 Q1013 TEMPO 25015G25KT 4000 SHRA SCT040CB
18:30
V
22 °C 10 km+ 13.000 ft 250° 250° 15 kt METAR LFST 211630Z AUTO 25015KT 9999 VCTS FEW008/// BKN130/// BKN150/// ///CB 22/14 Q1014 TEMPO 25015G25KT 4000 SHRA
18:00
V
24 °C 10 km+ 11.000 ft 220° 220° 10 kt METAR LFST 211600Z AUTO 22010KT 190V250 9999 FEW007/// BKN110/// BKN130/// ///CB 24/15 Q1013 TEMPO 25015G25KT 2000 TSRA
17:30
V
24 °C 10 km+ - 260° 260° 15 - 25 kt METAR LFST 211530Z AUTO 26015G25KT 9999 ///CB 24/15 Q1013 TEMPO 2000 TSRA
17:00
V
25 °C 10 km+ - 270° 270° 15 kt METAR LFST 211500Z AUTO 27015KT 9999 ///CB 25/15 Q1012 TEMPO 25015G25KT 2000 TSRA
16:30
V
26 °C 10 km+ 7.400 ft 240° 240° 14 kt METAR LFST 211430Z AUTO 24014KT 9999 VCTS FEW008/// BKN074/// BKN090/// ///CB 26/14 Q1012 TEMPO 25015G25KT 2000 TSRA
16:00
V
26 °C 10 km+ 7.000 ft 190° 190° 10 kt METAR LFST 211400Z AUTO 19010KT 160V220 9999 SCT060/// BKN070/// BKN080/// ///CB 26/17 Q1012 TEMPO 25015G25KT 2000 TSRA
15:30
V
27 °C 10 km+ 8.000 ft 190° 190° 11 kt METAR LFST 211330Z AUTO 19011KT 150V230 9999 SCT042/// SCT062/// BKN080/// ///TCU 27/17 Q1012 TEMPO 25015G25KT 2000 TSRA BKN040CB
15:00
V
27 °C 10 km+ - 190° 190° 10 kt METAR LFST 211300Z AUTO 19010KT 140V220 9999 FEW040/// ///TCU 27/17 Q1012 TEMPO 25015G25KT 2000 TSRA BKN040CB
14:30
V
25 °C 10 km+ 21.000 ft 180° 180° 8 kt METAR LFST 211230Z AUTO 18008KT 140V210 9999 FEW042 BKN210 25/17 Q1013 TEMPO 25015G25KT 2000 TSRA BKN040CB
14:00
V
26 °C 10 km+ 4.000 ft 210° 210° 10 kt METAR LFST 211200Z AUTO 21010KT 170V250 9999 FEW025 BKN040 BKN048 26/17 Q1013 TEMPO 25015G25KT 2000 TSRA BKN040CB
13:30
V
26 °C 10 km+ 5.400 ft 190° 190° 9 kt METAR LFST 211130Z AUTO 19009KT 160V240 9999 FEW038 SCT048 BKN054 26/17 Q1013 TEMPO 25015G25KT 2000 TSRA BKN040CB
13:00
V
25 °C 10 km+ - 200° 200° 10 kt METAR LFST 211100Z AUTO 20010KT 170V230 9999 FEW045 25/18 Q1014 TEMPO VRB15G28KT 2000 TSRA BKN040CB
12:30
V
24 °C 10 km+ - 170° 170° 4 kt METAR LFST 211030Z AUTO 17004KT 070V230 CAVOK 24/17 Q1013 TEMPO VRB15G28KT 2000 TSRA BKN040CB
12:00
V
22 °C 10 km+ - 190° 190° 7 kt METAR LFST 211000Z AUTO 19007KT 140V220 CAVOK 22/18 Q1014 TEMPO VRB15G28KT 2000 TSRA BKN040CB
11:30
V
21 °C 10 km+ 17.000 ft 190° 190° 4 kt METAR LFST 210930Z AUTO 19004KT 160V230 9999 FEW008 SCT150 BKN170 21/18 Q1014 TEMPO VRB15G28KT 2000 TSRA BKN040CB
11:00
V
20 °C 10 km+ - Var Var 3 kt METAR LFST 210900Z AUTO VRB03KT 9999 //////TCU 20/17 Q1013 TEMPO VRB15G28KT 2000 TSRA BKN040CB
10:30
V
20 °C 10 km+ - 160° 160° 4 kt METAR LFST 210830Z AUTO 16004KT 100V200 9999 FEW011 SCT140 20/18 Q1014 TEMPO VRB15G28KT 2000 TSRA BKN040CB
10:00
V
19 °C 10 km+ 12.000 ft 120° 120° 4 kt METAR LFST 210800Z AUTO 12004KT 080V180 9999 -RA SCT038/// SCT062/// BKN120/// ///TCU 19/18 Q1014 TEMPO 3500 SHRA SCT045CB
09:30
V
19 °C 10 km+ 11.000 ft 120° 120° 4 kt METAR LFST 210730Z AUTO 12004KT 080V180 9999 FEW040 BKN110 BKN240 19/18 Q1014 TEMPO 3500 SHRA SCT045CB
09:00
V
19 °C 10 km+ 5.200 ft 080° 080° 3 kt METAR LFST 210700Z AUTO 08003KT 040V160 9999 -RA FEW009/// SCT036/// BKN052/// //////TCU 19/17 Q1015 TEMPO 3500 SHRA SCT045CB
08:30
V
19 °C 10 km+ 6.400 ft Var Var 2 kt METAR LFST 210630Z AUTO VRB02KT 9999 -RA FEW010/// SCT042/// BKN064/// //////TCU 19/18 Q1016 TEMPO 3500 SHRA SCT045CB
08:00
V
19 °C 10 km+ 12.000 ft 270° 270° 5 kt METAR LFST 210600Z AUTO 27005KT 220V290 9999 SCT011 SCT041 BKN120 19/18 Q1015 TEMPO 3500 SHRA SCT045CB
07:30
M
19 °C 10 km+ 1.000 ft 160° 160° 6 kt METAR LFST 210530Z AUTO 16006KT 110V200 9999 -RA BKN010/// BKN068/// BKN110/// ///TCU 19/18 Q1015 TEMPO 3500 SHRA SCT045CB
07:00
I
19 °C 6 km 800 ft 150° 150° 5 kt METAR LFST 210500Z AUTO 15005KT 100V190 6000 BKN008/// BKN014/// BKN094/// //////TCU 19/18 Q1014 TEMPO 4000 -TSRA SCT045CB
06:30
M
18 °C 7 km 1.500 ft 230° 230° 4 kt METAR LFST 210430Z AUTO 23004KT 7000 SCT005 BKN015 BKN150 18/18 Q1014 TEMPO 4000 -TSRA SCT045CB
06:00
I
18 °C 4,7 km 19.000 ft Var Var 3 kt METAR LFST 210400Z AUTO VRB03KT 4700 BR FEW015 BKN190 18/18 Q1014 TEMPO -TSRA SCT045CB
05:30
I
18 °C 4,5 km - 230° 230° 5 kt METAR LFST 210330Z AUTO 23005KT 200V260 4500 BR NSC 18/17 Q1014 TEMPO -TSRA SCT045CB
05:00
M
18 °C 5 km - Var Var 2 kt METAR LFST 210300Z AUTO VRB02KT 5000 BR NSC 18/18 Q1013 TEMPO -TSRA SCT045CB
04:30
M
18 °C 5 km - Var Var 2 kt METAR LFST 210230Z AUTO VRB02KT 5000 BR NSC 18/17 Q1014 TEMPO -TSRA SCT045CB
04:00
M
18 °C 6 km - 320° 320° 4 kt METAR LFST 210200Z AUTO 32004KT 6000 NSC 18/17 Q1014 TEMPO 4000 -TSRA SCT045CB
03:30
M
18 °C 5 km - Var Var 2 kt METAR LFST 210130Z AUTO VRB02KT 5000 BR NSC 18/17 Q1015 TEMPO -TSRA SCT045CB
03:00
M
19 °C 6 km - 320° 320° 3 kt METAR LFST 210100Z AUTO 32003KT 6000 NSC 19/18 Q1015 TEMPO 4000 -TSRA SCT045CB
02:30
M
20 °C 7 km - 050° 050° 4 kt METAR LFST 210030Z AUTO 05004KT 7000 NSC 20/19 Q1015 TEMPO 4000 -TSRA SCT045CB
02:00
V
20 °C 9 km - Var Var 2 kt METAR LFST 210000Z AUTO VRB02KT 9000 NSC 20/19 Q1015 TEMPO 4000 -TSRA SCT045CB
01:30
V
20 °C 10 km+ - 020° 020° 3 kt METAR LFST 202330Z AUTO 02003KT CAVOK 20/19 Q1015 TEMPO 4000 -TSRA SCT045CB
01:00
V
20 °C 10 km+ - 340° 340° 2 kt METAR LFST 202300Z AUTO 34002KT CAVOK 20/19 Q1015 TEMPO SHRA SCT080CB
00:30
V
20 °C 10 km+ - Var Var 2 kt METAR LFST 202230Z AUTO VRB02KT CAVOK 20/19 Q1015 TEMPO SHRA SCT080CB
00:00
V
21 °C 10 km+ - Var Var 3 kt METAR LFST 202200Z AUTO VRB03KT CAVOK 21/19 Q1015 NOSIG

20 juin 2024

Temps Code Temps Temp. Vue Base cloud Vent METAR/SPECI
23:30
V
21 °C 10 km+ - 330° 330° 3 kt METAR LFST 202130Z AUTO 33003KT CAVOK 21/19 Q1015 NOSIG
23:00
V
21 °C 10 km+ - 070° 070° 2 kt METAR LFST 202100Z AUTO 07002KT CAVOK 21/20 Q1015 NOSIG
22:30
V
22 °C 10 km+ - Var Var 3 kt METAR LFST 202030Z AUTO VRB03KT 9999 ///TCU 22/19 Q1015 BECMG NSC
22:00
I
22 °C 3,3 km - 260° 260° 2 kt METAR LFST 202000Z AUTO 26002KT 9999 3300 NSC 22/20 Q1016 NOSIG
21:30
V
22 °C 10 km+ - Var Var 2 kt METAR LFST 201930Z AUTO VRB02KT CAVOK 22/20 Q1015 NOSIG
21:00
V
23 °C 10 km+ - Var Var 2 kt METAR LFST 201900Z AUTO VRB02KT CAVOK 23/19 Q1015 TEMPO FEW050CB
20:30
V
24 °C 10 km+ - Var Var 2 kt METAR LFST 201830Z AUTO VRB02KT CAVOK 24/20 Q1016 TEMPO FEW050CB
20:00
V
24 °C 10 km+ - Var Var 2 kt METAR LFST 201800Z AUTO VRB02KT CAVOK 24/20 Q1016 TEMPO FEW050CB
19:30
V
25 °C 10 km+ 20.000 ft Var Var 3 kt METAR LFST 201730Z AUTO VRB03KT 9999 FEW008 SCT110 BKN200 25/19 Q1016 TEMPO FEW050CB
19:00
V
25 °C 10 km+ - 070° 070° 3 kt METAR LFST 201700Z AUTO 07003KT 010V100 CAVOK 25/19 Q1016 NOSIG
18:30
V
25 °C 10 km+ - Var Var 3 kt METAR LFST 201630Z AUTO VRB03KT CAVOK 25/19 Q1015 NOSIG
18:00
V
25 °C 10 km+ - 060° 060° 4 kt METAR LFST 201600Z AUTO 06004KT 010V120 CAVOK 25/20 Q1016 NOSIG
17:30
V
24 °C 10 km+ - Var Var 3 kt METAR LFST 201530Z AUTO VRB03KT CAVOK 24/19 Q1016 NOSIG
17:00
V
24 °C 10 km+ - Var Var 2 kt METAR LFST 201500Z AUTO VRB02KT CAVOK 24/18 Q1017 NOSIG
16:30
V
24 °C 10 km+ - Var Var 3 kt METAR LFST 201430Z AUTO VRB03KT CAVOK 24/19 Q1017 NOSIG
16:00
V
24 °C 10 km+ 11.000 ft Var Var 2 kt METAR LFST 201400Z AUTO VRB02KT 9999 FEW007 OVC110 24/18 Q1017 NOSIG
15:30
V
24 °C 10 km+ - Var Var 2 kt METAR LFST 201330Z AUTO VRB02KT CAVOK 24/19 Q1017 NOSIG
15:00
V
23 °C 10 km+ - 140° 140° 3 kt METAR LFST 201300Z AUTO 14003KT 060V220 CAVOK 23/19 Q1017 NOSIG
14:30
V
23 °C 10 km+ - 170° 170° 4 kt METAR LFST 201230Z AUTO 17004KT 120V200 CAVOK 23/18 Q1018 NOSIG
14:00
V
23 °C 10 km+ - 200° 200° 3 kt METAR LFST 201200Z AUTO 20003KT 130V280 9999 FEW015 23/19 Q1018 NOSIG
13:30
V
22 °C 10 km+ 3.200 ft 160° 160° 4 kt METAR LFST 201130Z AUTO 16004KT 100V230 9999 -RA BKN032/// BKN038/// BKN044/// //////TCU 22/18 Q1018 BECMG FEW030 BKN090
13:00
V
21 °C 10 km+ 10.000 ft 170° 170° 3 kt METAR LFST 201100Z AUTO 17003KT 110V220 9999 FEW033/// SCT064/// BKN100/// ///TCU 21/18 Q1018 BECMG SCT025
12:30
V
21 °C 10 km+ 11.000 ft 190° 190° 5 kt METAR LFST 201030Z AUTO 19005KT 140V240 9999 FEW007 BKN110 BKN150 21/17 Q1018 NOSIG
12:00
V
20 °C 10 km+ - 220° 220° 3 kt METAR LFST 201000Z AUTO 22003KT 090V260 CAVOK 20/17 Q1018 NOSIG
11:30
V
20 °C 10 km+ 19.000 ft Var Var 2 kt METAR LFST 200930Z AUTO VRB02KT 9999 FEW011 BKN190 20/17 Q1018 NOSIG
11:00
V
20 °C 10 km+ - Var Var 1 kt METAR LFST 200900Z AUTO VRB01KT 9999 FEW009 SCT120 20/17 Q1018 NOSIG
10:30
V
19 °C 10 km+ 23.000 ft 360° 360° 0 kt METAR LFST 200830Z AUTO 00000KT 9999 FEW009 SCT110 BKN230 19/16 Q1018 NOSIG
10:00
I
19 °C 10 km+ 900 ft 320° 320° 3 kt METAR LFST 200800Z AUTO 32003KT 270V040 9999 BKN009 19/16 Q1018 BECMG SCT025
09:30
I
18 °C 10 km+ 900 ft Var Var 3 kt METAR LFST 200730Z AUTO VRB03KT 9999 BKN009 BKN096 18/16 Q1018 BECMG SCT025
09:00
I
18 °C 10 km+ 800 ft Var Var 3 kt METAR LFST 200700Z AUTO VRB03KT 9999 BKN008 BKN090 18/16 Q1019 TEMPO FEW050CB
08:30
V
17 °C 10 km+ 12.000 ft 020° 020° 4 kt METAR LFST 200630Z AUTO 02004KT 350V050 9999 SCT007 SCT096 BKN120 17/16 Q1018 TEMPO FEW050CB
08:00
V
17 °C 10 km+ 10.000 ft 320° 320° 3 kt METAR LFST 200600Z AUTO 32003KT 9999 FEW008 BKN100 BKN120 17/15 Q1019 TEMPO FEW050CB
Signaler les modifications